sensor_id;sensor_type;location;lat;lon;timestamp;pressure;altitude;pressure_sealevel;temperature;humidity
12203;BME280;6164;42.178;24.622;2023-04-28T00:00:05;99824.59;;;10.98;55.86
12203;BME280;6164;42.178;24.622;2023-04-28T00:02:33;99818.31;;;11.07;55.86
12203;BME280;6164;42.178;24.622;2023-04-28T00:04:59;99812.72;;;11.10;55.78
12203;BME280;6164;42.178;24.622;2023-04-28T00:07:26;99815.03;;;11.13;55.96
12203;BME280;6164;42.178;24.622;2023-04-28T00:09:53;99813.03;;;11.15;55.53
12203;BME280;6164;42.178;24.622;2023-04-28T00:12:22;99820.63;;;11.18;55.45
12203;BME280;6164;42.178;24.622;2023-04-28T00:14:49;99827.25;;;11.14;54.87
12203;BME280;6164;42.178;24.622;2023-04-28T00:17:16;99830.88;;;10.97;54.96
12203;BME280;6164;42.178;24.622;2023-04-28T00:19:42;99822.59;;;10.84;55.46
12203;BME280;6164;42.178;24.622;2023-04-28T00:22:09;99811.06;;;10.69;56.37
12203;BME280;6164;42.178;24.622;2023-04-28T00:24:36;99799.94;;;10.41;57.01
12203;BME280;6164;42.178;24.622;2023-04-28T00:27:02;99783.69;;;10.04;57.99
12203;BME280;6164;42.178;24.622;2023-04-28T00:29:30;99753.53;;;9.65;59.55
12203;BME280;6164;42.178;24.622;2023-04-28T00:31:57;99741.19;;;9.32;60.89
12203;BME280;6164;42.178;24.622;2023-04-28T00:34:24;99732.53;;;9.14;62.03
12203;BME280;6164;42.178;24.622;2023-04-28T00:36:51;99745.94;;;9.03;62.44
12203;BME280;6164;42.178;24.622;2023-04-28T00:39:17;99745.16;;;8.85;63.53
12203;BME280;6164;42.178;24.622;2023-04-28T00:41:44;99748.19;;;8.72;64.89
12203;BME280;6164;42.178;24.622;2023-04-28T00:44:11;99749.34;;;8.52;66.43
12203;BME280;6164;42.178;24.622;2023-04-28T00:46:39;99777.97;;;8.55;66.96
12203;BME280;6164;42.178;24.622;2023-04-28T00:49:06;99800.75;;;8.47;67.57
12203;BME280;6164;42.178;24.622;2023-04-28T00:51:33;99806.22;;;8.36;68.59
12203;BME280;6164;42.178;24.622;2023-04-28T00:54:00;99813.91;;;8.29;68.96
12203;BME280;6164;42.178;24.622;2023-04-28T00:56:27;99828.19;;;8.27;68.63
12203;BME280;6164;42.178;24.622;2023-04-28T00:58:55;99824.78;;;8.34;69.34
12203;BME280;6164;42.178;24.622;2023-04-28T01:01:22;99828.13;;;8.36;68.32
12203;BME280;6164;42.178;24.622;2023-04-28T01:03:50;99825.19;;;8.39;67.39
12203;BME280;6164;42.178;24.622;2023-04-28T01:06:17;99827.34;;;8.44;67.19
12203;BME280;6164;42.178;24.622;2023-04-28T01:08:47;99823.47;;;8.48;67.19
12203;BME280;6164;42.178;24.622;2023-04-28T01:11:14;99811.88;;;8.41;67.17
12203;BME280;6164;42.178;24.622;2023-04-28T01:13:41;99819.91;;;8.39;67.27
12203;BME280;6164;42.178;24.622;2023-04-28T01:16:08;99828.50;;;8.41;68.24
12203;BME280;6164;42.178;24.622;2023-04-28T01:18:35;99824.06;;;8.42;68.22
12203;BME280;6164;42.178;24.622;2023-04-28T01:21:04;99824.88;;;8.42;68.05
12203;BME280;6164;42.178;24.622;2023-04-28T01:23:31;99819.16;;;8.47;67.64
12203;BME280;6164;42.178;24.622;2023-04-28T01:25:59;99821.06;;;8.54;67.46
12203;BME280;6164;42.178;24.622;2023-04-28T01:28:26;99824.75;;;8.61;66.56
12203;BME280;6164;42.178;24.622;2023-04-28T01:30:52;99824.44;;;8.64;66.39
12203;BME280;6164;42.178;24.622;2023-04-28T01:33:20;99826.56;;;8.61;66.29
12203;BME280;6164;42.178;24.622;2023-04-28T01:35:47;99824.75;;;8.61;65.86
12203;BME280;6164;42.178;24.622;2023-04-28T01:38:14;99821.22;;;8.53;66.08
12203;BME280;6164;42.178;24.622;2023-04-28T01:40:41;99814.44;;;8.50;66.18
12203;BME280;6164;42.178;24.622;2023-04-28T01:43:09;99816.03;;;8.43;66.92
12203;BME280;6164;42.178;24.622;2023-04-28T01:45:36;99823.63;;;8.46;66.97
12203;BME280;6164;42.178;24.622;2023-04-28T01:48:03;99828.88;;;8.46;66.77
12203;BME280;6164;42.178;24.622;2023-04-28T01:50:30;99827.22;;;8.45;66.28
12203;BME280;6164;42.178;24.622;2023-04-28T01:52:56;99826.00;;;8.40;66.72
12203;BME280;6164;42.178;24.622;2023-04-28T01:55:23;99831.13;;;8.41;66.74
12203;BME280;6164;42.178;24.622;2023-04-28T01:57:50;99823.38;;;8.40;67.20
12203;BME280;6164;42.178;24.622;2023-04-28T02:00:18;99839.31;;;8.38;68.07
12203;BME280;6164;42.178;24.622;2023-04-28T02:02:45;99833.81;;;8.22;68.48
12203;BME280;6164;42.178;24.622;2023-04-28T02:05:12;99830.31;;;8.14;68.94
12203;BME280;6164;42.178;24.622;2023-04-28T02:07:38;99830.63;;;8.01;69.12
12203;BME280;6164;42.178;24.622;2023-04-28T02:10:06;99836.72;;;8.01;70.50
12203;BME280;6164;42.178;24.622;2023-04-28T02:12:33;99837.03;;;7.98;70.79
12203;BME280;6164;42.178;24.622;2023-04-28T02:14:59;99845.31;;;8.03;70.65
12203;BME280;6164;42.178;24.622;2023-04-28T02:17:30;99846.50;;;8.09;70.68
12203;BME280;6164;42.178;24.622;2023-04-28T02:19:56;99804.00;;;7.86;70.52
12203;BME280;6164;42.178;24.622;2023-04-28T02:22:23;99848.16;;;8.10;71.31
12203;BME280;6164;42.178;24.622;2023-04-28T02:24:50;99852.84;;;8.16;70.90
12203;BME280;6164;42.178;24.622;2023-04-28T02:27:17;99848.56;;;8.15;70.82
12203;BME280;6164;42.178;24.622;2023-04-28T02:29:44;99860.56;;;8.18;71.49
12203;BME280;6164;42.178;24.622;2023-04-28T02:32:10;99866.53;;;8.20;70.99
12203;BME280;6164;42.178;24.622;2023-04-28T02:34:39;99865.97;;;8.16;71.05
12203;BME280;6164;42.178;24.622;2023-04-28T02:37:05;99871.53;;;8.13;71.26
12203;BME280;6164;42.178;24.622;2023-04-28T02:39:32;99872.78;;;8.19;71.14
12203;BME280;6164;42.178;24.622;2023-04-28T02:41:59;99869.63;;;8.05;71.48
12203;BME280;6164;42.178;24.622;2023-04-28T02:44:27;99875.03;;;8.04;71.38
12203;BME280;6164;42.178;24.622;2023-04-28T02:46:53;99873.25;;;8.04;71.11
12203;BME280;6164;42.178;24.622;2023-04-28T02:49:20;99887.38;;;8.03;70.53
12203;BME280;6164;42.178;24.622;2023-04-28T02:51:48;99885.84;;;8.01;70.28
12203;BME280;6164;42.178;24.622;2023-04-28T02:54:15;99891.00;;;7.93;70.82
12203;BME280;6164;42.178;24.622;2023-04-28T02:56:51;99893.31;;;7.96;70.62
12203;BME280;6164;42.178;24.622;2023-04-28T02:59:18;99890.69;;;7.96;70.61
12203;BME280;6164;42.178;24.622;2023-04-28T03:01:44;99905.13;;;7.92;71.23
12203;BME280;6164;42.178;24.622;2023-04-28T03:04:12;99903.06;;;7.86;70.94
12203;BME280;6164;42.178;24.622;2023-04-28T03:06:39;99905.13;;;7.82;71.24
12203;BME280;6164;42.178;24.622;2023-04-28T03:09:08;99898.91;;;7.83;71.10
12203;BME280;6164;42.178;24.622;2023-04-28T03:11:35;99903.06;;;7.86;70.77
12203;BME280;6164;42.178;24.622;2023-04-28T03:14:02;99905.69;;;7.86;70.15
12203;BME280;6164;42.178;24.622;2023-04-28T03:16:28;99904.88;;;7.85;70.00
12203;BME280;6164;42.178;24.622;2023-04-28T03:18:55;99905.00;;;7.84;70.08
12203;BME280;6164;42.178;24.622;2023-04-28T03:21:22;99898.66;;;7.77;70.33
12203;BME280;6164;42.178;24.622;2023-04-28T03:23:50;99901.59;;;7.64;70.94
12203;BME280;6164;42.178;24.622;2023-04-28T03:26:19;99893.44;;;7.58;70.34
12203;BME280;6164;42.178;24.622;2023-04-28T03:28:45;99898.59;;;7.59;70.76
12203;BME280;6164;42.178;24.622;2023-04-28T03:31:12;99895.56;;;7.45;70.28
12203;BME280;6164;42.178;24.622;2023-04-28T03:33:39;99906.91;;;7.45;71.12
12203;BME280;6164;42.178;24.622;2023-04-28T03:36:07;99907.44;;;7.49;70.05
12203;BME280;6164;42.178;24.622;2023-04-28T03:38:33;99918.94;;;7.48;70.32
12203;BME280;6164;42.178;24.622;2023-04-28T03:41:00;99921.00;;;7.44;70.36
12203;BME280;6164;42.178;24.622;2023-04-28T03:43:28;99921.56;;;7.48;70.48
12203;BME280;6164;42.178;24.622;2023-04-28T03:45:55;99929.72;;;7.54;70.35
12203;BME280;6164;42.178;24.622;2023-04-28T03:48:22;99932.59;;;7.51;70.30
12203;BME280;6164;42.178;24.622;2023-04-28T03:50:48;99941.13;;;7.63;70.08
12203;BME280;6164;42.178;24.622;2023-04-28T03:53:15;99942.53;;;7.67;69.20
12203;BME280;6164;42.178;24.622;2023-04-28T03:55:42;99956.63;;;7.75;69.28
12203;BME280;6164;42.178;24.622;2023-04-28T03:58:09;99957.31;;;7.77;69.71
12203;BME280;6164;42.178;24.622;2023-04-28T04:00:37;99962.28;;;7.80;69.02
12203;BME280;6164;42.178;24.622;2023-04-28T04:03:03;99961.03;;;7.84;68.74
12203;BME280;6164;42.178;24.622;2023-04-28T04:05:30;99959.22;;;7.85;68.78
12203;BME280;6164;42.178;24.622;2023-04-28T04:07:57;99969.31;;;7.89;68.49
12203;BME280;6164;42.178;24.622;2023-04-28T04:10:24;99978.84;;;8.00;68.18
12203;BME280;6164;42.178;24.622;2023-04-28T04:12:50;99992.28;;;7.97;68.12
12203;BME280;6164;42.178;24.622;2023-04-28T04:15:17;99979.66;;;8.10;68.01
12203;BME280;6164;42.178;24.622;2023-04-28T04:17:45;99991.66;;;8.13;67.98
12203;BME280;6164;42.178;24.622;2023-04-28T04:20:12;99996.38;;;8.19;67.51
12203;BME280;6164;42.178;24.622;2023-04-28T04:22:38;99987.09;;;8.24;67.67
12203;BME280;6164;42.178;24.622;2023-04-28T04:25:06;100009.22;;;8.31;67.30
12203;BME280;6164;42.178;24.622;2023-04-28T04:27:32;99999.50;;;8.41;66.98
12203;BME280;6164;42.178;24.622;2023-04-28T04:29:59;100003.22;;;8.48;66.49
12203;BME280;6164;42.178;24.622;2023-04-28T04:32:26;100014.69;;;8.47;65.71
12203;BME280;6164;42.178;24.622;2023-04-28T04:34:54;100006.09;;;8.55;66.39
12203;BME280;6164;42.178;24.622;2023-04-28T04:37:21;100003.56;;;8.63;65.34
12203;BME280;6164;42.178;24.622;2023-04-28T04:39:48;100025.94;;;8.76;64.40
12203;BME280;6164;42.178;24.622;2023-04-28T04:42:15;100026.31;;;8.81;63.48
12203;BME280;6164;42.178;24.622;2023-04-28T04:44:42;100022.41;;;8.85;63.30
12203;BME280;6164;42.178;24.622;2023-04-28T04:47:08;100028.53;;;8.86;63.55
12203;BME280;6164;42.178;24.622;2023-04-28T04:49:35;100020.63;;;8.86;63.40
12203;BME280;6164;42.178;24.622;2023-04-28T04:52:03;100023.41;;;8.84;63.42
12203;BME280;6164;42.178;24.622;2023-04-28T04:54:31;100028.81;;;8.83;63.86
12203;BME280;6164;42.178;24.622;2023-04-28T04:56:58;100023.78;;;8.89;63.72
12203;BME280;6164;42.178;24.622;2023-04-28T04:59:24;100045.75;;;8.98;63.14
12203;BME280;6164;42.178;24.622;2023-04-28T05:01:51;100036.59;;;9.02;63.67
12203;BME280;6164;42.178;24.622;2023-04-28T05:04:18;100037.06;;;9.15;64.03
12203;BME280;6164;42.178;24.622;2023-04-28T05:06:45;100037.31;;;9.21;63.50
12203;BME280;6164;42.178;24.622;2023-04-28T05:09:13;100044.59;;;9.27;63.11
12203;BME280;6164;42.178;24.622;2023-04-28T05:11:39;100050.63;;;9.38;63.06
12203;BME280;6164;42.178;24.622;2023-04-28T05:14:06;100056.34;;;9.33;62.79
12203;BME280;6164;42.178;24.622;2023-04-28T05:16:33;100050.59;;;9.47;63.31
12203;BME280;6164;42.178;24.622;2023-04-28T05:19:00;100055.84;;;9.47;62.18
12203;BME280;6164;42.178;24.622;2023-04-28T05:21:27;100070.00;;;9.46;61.67
12203;BME280;6164;42.178;24.622;2023-04-28T05:23:54;100066.84;;;9.60;62.12
12203;BME280;6164;42.178;24.622;2023-04-28T05:26:23;100069.88;;;9.65;61.89
12203;BME280;6164;42.178;24.622;2023-04-28T05:28:49;100085.38;;;9.68;61.01
12203;BME280;6164;42.178;24.622;2023-04-28T05:31:16;100059.81;;;9.69;61.15
12203;BME280;6164;42.178;24.622;2023-04-28T05:33:43;100081.25;;;9.83;60.28
12203;BME280;6164;42.178;24.622;2023-04-28T05:36:10;100096.13;;;9.92;60.10
12203;BME280;6164;42.178;24.622;2023-04-28T05:38:37;100092.22;;;10.14;59.96
12203;BME280;6164;42.178;24.622;2023-04-28T05:41:03;100106.78;;;10.18;59.35
12203;BME280;6164;42.178;24.622;2023-04-28T05:43:32;100093.97;;;10.23;60.10
12203;BME280;6164;42.178;24.622;2023-04-28T05:45:59;100119.25;;;10.33;58.67
12203;BME280;6164;42.178;24.622;2023-04-28T05:48:26;100111.97;;;10.53;59.14
12203;BME280;6164;42.178;24.622;2023-04-28T05:50:53;100119.34;;;10.49;58.19
12203;BME280;6164;42.178;24.622;2023-04-28T05:53:19;100123.75;;;10.67;58.00
12203;BME280;6164;42.178;24.622;2023-04-28T05:55:46;100112.94;;;10.78;58.25
12203;BME280;6164;42.178;24.622;2023-04-28T05:58:13;100149.34;;;10.92;56.75
12203;BME280;6164;42.178;24.622;2023-04-28T06:00:41;100138.34;;;11.04;57.32
12203;BME280;6164;42.178;24.622;2023-04-28T06:03:07;100122.16;;;11.07;57.66
12203;BME280;6164;42.178;24.622;2023-04-28T06:05:35;100172.56;;;11.14;55.33
12203;BME280;6164;42.178;24.622;2023-04-28T06:08:02;100140.75;;;11.23;56.23
12203;BME280;6164;42.178;24.622;2023-04-28T06:10:29;100148.03;;;11.29;55.91
12203;BME280;6164;42.178;24.622;2023-04-28T06:12:55;100158.16;;;11.50;55.28
12203;BME280;6164;42.178;24.622;2023-04-28T06:15:22;100175.69;;;11.51;54.06
12203;BME280;6164;42.178;24.622;2023-04-28T06:17:51;100173.75;;;11.61;54.51
12203;BME280;6164;42.178;24.622;2023-04-28T06:20:18;100200.44;;;11.75;53.08
12203;BME280;6164;42.178;24.622;2023-04-28T06:22:45;100223.25;;;11.76;52.68
12203;BME280;6164;42.178;24.622;2023-04-28T06:25:11;100225.91;;;11.76;52.05
12203;BME280;6164;42.178;24.622;2023-04-28T06:27:38;100227.25;;;11.80;52.23
12203;BME280;6164;42.178;24.622;2023-04-28T06:30:06;100204.72;;;11.76;52.87
12203;BME280;6164;42.178;24.622;2023-04-28T06:32:33;100237.03;;;11.96;52.31
12203;BME280;6164;42.178;24.622;2023-04-28T06:35:01;100232.38;;;11.90;51.52
12203;BME280;6164;42.178;24.622;2023-04-28T06:37:28;100240.84;;;12.02;50.95
12203;BME280;6164;42.178;24.622;2023-04-28T06:39:55;100242.06;;;12.23;51.51
12203;BME280;6164;42.178;24.622;2023-04-28T06:42:21;100235.97;;;12.39;51.98
12203;BME280;6164;42.178;24.622;2023-04-28T06:44:48;100253.34;;;12.49;51.42
12203;BME280;6164;42.178;24.622;2023-04-28T06:47:15;100243.25;;;12.69;51.60
12203;BME280;6164;42.178;24.622;2023-04-28T06:49:41;100254.69;;;12.69;50.81
12203;BME280;6164;42.178;24.622;2023-04-28T06:52:11;100259.47;;;12.74;50.94
12203;BME280;6164;42.178;24.622;2023-04-28T06:54:38;100259.97;;;12.93;50.92
12203;BME280;6164;42.178;24.622;2023-04-28T06:57:05;100238.94;;;12.84;50.77
12203;BME280;6164;42.178;24.622;2023-04-28T06:59:32;100262.28;;;13.20;50.90
12203;BME280;6164;42.178;24.622;2023-04-28T07:01:59;100257.41;;;13.48;50.26
12203;BME280;6164;42.178;24.622;2023-04-28T07:04:25;100278.94;;;13.53;49.18
12203;BME280;6164;42.178;24.622;2023-04-28T07:06:52;100300.41;;;13.74;48.69
12203;BME280;6164;42.178;24.622;2023-04-28T07:09:20;100319.59;;;13.92;48.15
12203;BME280;6164;42.178;24.622;2023-04-28T07:11:47;100303.63;;;14.08;49.05
12203;BME280;6164;42.178;24.622;2023-04-28T07:14:14;100316.50;;;14.19;48.41
12203;BME280;6164;42.178;24.622;2023-04-28T07:16:40;100334.13;;;14.12;47.93
12203;BME280;6164;42.178;24.622;2023-04-28T07:19:07;100329.59;;;14.21;47.55
12203;BME280;6164;42.178;24.622;2023-04-28T07:21:34;100356.19;;;14.13;46.73
12203;BME280;6164;42.178;24.622;2023-04-28T07:24:01;100333.09;;;14.21;48.33
12203;BME280;6164;42.178;24.622;2023-04-28T07:26:29;100328.88;;;14.35;48.16
12203;BME280;6164;42.178;24.622;2023-04-28T07:28:56;100349.47;;;14.41;46.78
12203;BME280;6164;42.178;24.622;2023-04-28T07:31:22;100350.25;;;14.49;47.34
12203;BME280;6164;42.178;24.622;2023-04-28T07:33:50;100324.66;;;14.71;48.02
12203;BME280;6164;42.178;24.622;2023-04-28T07:36:17;100361.19;;;14.55;46.65
12203;BME280;6164;42.178;24.622;2023-04-28T07:38:43;100353.69;;;14.50;47.13
12203;BME280;6164;42.178;24.622;2023-04-28T07:41:10;100360.38;;;14.46;45.90
12203;BME280;6164;42.178;24.622;2023-04-28T07:43:39;100391.25;;;14.47;44.96
12203;BME280;6164;42.178;24.622;2023-04-28T07:46:06;100393.28;;;14.37;44.96
12203;BME280;6164;42.178;24.622;2023-04-28T07:48:33;100368.63;;;14.59;47.19
12203;BME280;6164;42.178;24.622;2023-04-28T07:51:00;100381.91;;;14.59;45.60
12203;BME280;6164;42.178;24.622;2023-04-28T07:53:27;100409.38;;;14.43;45.38
12203;BME280;6164;42.178;24.622;2023-04-28T07:55:53;100407.50;;;14.52;45.10
12203;BME280;6164;42.178;24.622;2023-04-28T07:58:20;100412.28;;;14.57;45.12
12203;BME280;6164;42.178;24.622;2023-04-28T08:00:48;100446.47;;;14.60;43.74
12203;BME280;6164;42.178;24.622;2023-04-28T08:03:15;100434.91;;;14.52;43.70
12203;BME280;6164;42.178;24.622;2023-04-28T08:05:42;100432.13;;;14.77;44.29
12203;BME280;6164;42.178;24.622;2023-04-28T08:08:09;100429.66;;;14.98;44.67
12203;BME280;6164;42.178;24.622;2023-04-28T08:10:36;100436.16;;;14.95;43.54
12203;BME280;6164;42.178;24.622;2023-04-28T08:13:04;100447.41;;;15.05;43.02
12203;BME280;6164;42.178;24.622;2023-04-28T08:15:32;100441.06;;;15.06;44.14
12203;BME280;6164;42.178;24.622;2023-04-28T08:18:00;100469.25;;;14.93;43.39
12203;BME280;6164;42.178;24.622;2023-04-28T08:20:27;100470.84;;;14.79;43.35
12203;BME280;6164;42.178;24.622;2023-04-28T08:22:54;100473.44;;;14.87;43.52
12203;BME280;6164;42.178;24.622;2023-04-28T08:25:21;100434.19;;;14.89;45.56
12203;BME280;6164;42.178;24.622;2023-04-28T08:27:48;100424.59;;;15.11;44.92
12203;BME280;6164;42.178;24.622;2023-04-28T08:30:15;100417.03;;;15.00;45.23
12203;BME280;6164;42.178;24.622;2023-04-28T08:32:42;100407.34;;;15.07;44.73
12203;BME280;6164;42.178;24.622;2023-04-28T08:35:10;100408.03;;;15.23;45.96
12203;BME280;6164;42.178;24.622;2023-04-28T08:37:37;100394.09;;;15.44;45.43
12203;BME280;6164;42.178;24.622;2023-04-28T08:40:05;100388.84;;;15.73;44.69
12203;BME280;6164;42.178;24.622;2023-04-28T08:42:34;100390.22;;;15.83;43.67
12203;BME280;6164;42.178;24.622;2023-04-28T08:45:03;100425.47;;;16.00;43.78
12203;BME280;6164;42.178;24.622;2023-04-28T08:47:33;100418.88;;;15.96;44.37
12203;BME280;6164;42.178;24.622;2023-04-28T08:50:02;100412.81;;;16.17;44.24
12203;BME280;6164;42.178;24.622;2023-04-28T08:52:32;100436.88;;;16.09;43.60
12203;BME280;6164;42.178;24.622;2023-04-28T08:55:00;100430.81;;;16.15;43.63
12203;BME280;6164;42.178;24.622;2023-04-28T08:57:29;100448.28;;;16.32;42.82
12203;BME280;6164;42.178;24.622;2023-04-28T08:59:59;100481.88;;;16.33;41.05
12203;BME280;6164;42.178;24.622;2023-04-28T09:02:27;100503.69;;;16.51;40.68
12203;BME280;6164;42.178;24.622;2023-04-28T09:04:53;100522.22;;;16.30;40.53
12203;BME280;6164;42.178;24.622;2023-04-28T09:07:20;100526.44;;;16.10;41.11
12203;BME280;6164;42.178;24.622;2023-04-28T09:09:48;100514.06;;;15.79;42.40
12203;BME280;6164;42.178;24.622;2023-04-28T09:12:17;100526.41;;;15.95;40.40
12203;BME280;6164;42.178;24.622;2023-04-28T09:14:43;100531.34;;;16.21;41.06
12203;BME280;6164;42.178;24.622;2023-04-28T09:17:11;100525.69;;;16.53;40.65
12203;BME280;6164;42.178;24.622;2023-04-28T09:19:39;100549.03;;;16.65;40.23
12203;BME280;6164;42.178;24.622;2023-04-28T09:22:07;100547.81;;;16.82;39.90
12203;BME280;6164;42.178;24.622;2023-04-28T09:24:35;100525.28;;;16.99;41.10
12203;BME280;6164;42.178;24.622;2023-04-28T09:27:06;100535.34;;;17.19;40.20
12203;BME280;6164;42.178;24.622;2023-04-28T09:29:36;100522.28;;;17.45;41.41
12203;BME280;6164;42.178;24.622;2023-04-28T09:32:12;100510.94;;;17.78;40.34
12203;BME280;6164;42.178;24.622;2023-04-28T09:34:42;100541.31;;;17.98;39.16
12203;BME280;6164;42.178;24.622;2023-04-28T09:37:14;100535.50;;;18.16;39.84
12203;BME280;6164;42.178;24.622;2023-04-28T09:39:43;100548.75;;;18.30;39.48
12203;BME280;6164;42.178;24.622;2023-04-28T09:42:29;100565.69;;;18.37;38.53
12203;BME280;6164;42.178;24.622;2023-04-28T09:44:56;100569.69;;;18.27;39.36
12203;BME280;6164;42.178;24.622;2023-04-28T09:47:23;100612.03;;;18.02;38.15
12203;BME280;6164;42.178;24.622;2023-04-28T09:49:53;100593.59;;;18.07;38.89
12203;BME280;6164;42.178;24.622;2023-04-28T09:52:21;100606.72;;;18.23;37.76
12203;BME280;6164;42.178;24.622;2023-04-28T09:54:49;100614.72;;;18.02;37.95
12203;BME280;6164;42.178;24.622;2023-04-28T09:57:17;100619.81;;;17.76;39.12
12203;BME280;6164;42.178;24.622;2023-04-28T09:59:47;100575.28;;;18.04;40.03
12203;BME280;6164;42.178;24.622;2023-04-28T10:02:15;100594.97;;;17.76;39.07
12203;BME280;6164;42.178;24.622;2023-04-28T10:04:44;100564.66;;;17.90;39.77
12203;BME280;6164;42.178;24.622;2023-04-28T10:07:11;100570.56;;;18.06;38.80
12203;BME280;6164;42.178;24.622;2023-04-28T10:09:38;100578.91;;;18.18;38.67
12203;BME280;6164;42.178;24.622;2023-04-28T10:12:08;100586.56;;;18.00;38.32
12203;BME280;6164;42.178;24.622;2023-04-28T10:14:36;100590.09;;;18.28;38.83
12203;BME280;6164;42.178;24.622;2023-04-28T10:17:03;100588.97;;;18.44;37.70
12203;BME280;6164;42.178;24.622;2023-04-28T10:19:31;100597.22;;;18.70;38.34
12203;BME280;6164;42.178;24.622;2023-04-28T10:22:08;100592.81;;;18.62;37.52
12203;BME280;6164;42.178;24.622;2023-04-28T10:24:55;100604.28;;;18.07;38.00
12203;BME280;6164;42.178;24.622;2023-04-28T10:27:29;100625.03;;;18.26;37.01
12203;BME280;6164;42.178;24.622;2023-04-28T10:30:10;100618.13;;;18.38;36.83
12203;BME280;6164;42.178;24.622;2023-04-28T10:32:37;100643.84;;;18.61;35.56
12203;BME280;6164;42.178;24.622;2023-04-28T10:35:41;100667.03;;;18.54;35.96
12203;BME280;6164;42.178;24.622;2023-04-28T10:38:10;100674.66;;;18.35;35.72
12203;BME280;6164;42.178;24.622;2023-04-28T10:40:39;100662.06;;;18.51;36.59
12203;BME280;6164;42.178;24.622;2023-04-28T10:43:07;100685.34;;;18.57;35.88
12203;BME280;6164;42.178;24.622;2023-04-28T10:46:01;100673.88;;;18.90;36.05
12203;BME280;6164;42.178;24.622;2023-04-28T10:48:51;100662.97;;;19.26;36.85
12203;BME280;6164;42.178;24.622;2023-04-28T10:51:31;100681.13;;;19.64;35.25
12203;BME280;6164;42.178;24.622;2023-04-28T10:54:14;100708.75;;;19.72;33.56
12203;BME280;6164;42.178;24.622;2023-04-28T10:59:50;100719.59;;;19.23;35.61
12203;BME280;6164;42.178;24.622;2023-04-28T11:02:40;100701.34;;;19.33;37.03
12203;BME280;6164;42.178;24.622;2023-04-28T11:05:10;100731.06;;;19.10;34.83
12203;BME280;6164;42.178;24.622;2023-04-28T11:07:37;100732.59;;;18.98;34.65
12203;BME280;6164;42.178;24.622;2023-04-28T11:10:04;100730.63;;;19.07;34.58
12203;BME280;6164;42.178;24.622;2023-04-28T11:12:31;100727.06;;;19.27;34.87
12203;BME280;6164;42.178;24.622;2023-04-28T11:15:10;100730.53;;;19.62;34.01
12203;BME280;6164;42.178;24.622;2023-04-28T11:17:40;100751.56;;;19.58;34.32
12203;BME280;6164;42.178;24.622;2023-04-28T11:20:11;100762.38;;;19.16;35.11
12203;BME280;6164;42.178;24.622;2023-04-28T11:22:40;100751.59;;;19.31;34.21
12203;BME280;6164;42.178;24.622;2023-04-28T11:25:07;100750.28;;;19.20;35.07
12203;BME280;6164;42.178;24.622;2023-04-28T11:27:34;100766.09;;;18.88;34.33
12203;BME280;6164;42.178;24.622;2023-04-28T11:30:01;100764.03;;;18.90;34.74
12203;BME280;6164;42.178;24.622;2023-04-28T11:32:31;100774.78;;;19.17;33.96
12203;BME280;6164;42.178;24.622;2023-04-28T11:35:00;100755.50;;;19.62;34.40
12203;BME280;6164;42.178;24.622;2023-04-28T11:37:28;100772.50;;;19.83;33.31
12203;BME280;6164;42.178;24.622;2023-04-28T11:39:55;100787.41;;;19.98;32.92
12203;BME280;6164;42.178;24.622;2023-04-28T11:42:22;100789.78;;;20.21;33.51
12203;BME280;6164;42.178;24.622;2023-04-28T11:44:51;100806.91;;;20.20;32.66
12203;BME280;6164;42.178;24.622;2023-04-28T11:47:27;100794.78;;;20.37;33.92
12203;BME280;6164;42.178;24.622;2023-04-28T11:49:55;100783.47;;;20.61;32.61
12203;BME280;6164;42.178;24.622;2023-04-28T11:52:23;100794.63;;;20.71;33.24
12203;BME280;6164;42.178;24.622;2023-04-28T11:54:55;100805.19;;;20.85;32.29
12203;BME280;6164;42.178;24.622;2023-04-28T11:57:22;100825.19;;;20.70;32.31
12203;BME280;6164;42.178;24.622;2023-04-28T11:59:49;100803.69;;;20.44;32.94
12203;BME280;6164;42.178;24.622;2023-04-28T12:02:24;100806.41;;;20.57;32.88
12203;BME280;6164;42.178;24.622;2023-04-28T12:04:52;100829.03;;;20.41;32.62
12203;BME280;6164;42.178;24.622;2023-04-28T12:07:19;100817.22;;;20.16;33.16
12203;BME280;6164;42.178;24.622;2023-04-28T12:09:48;100812.16;;;20.41;33.86
12203;BME280;6164;42.178;24.622;2023-04-28T12:12:34;100837.00;;;20.75;32.02
12203;BME280;6164;42.178;24.622;2023-04-28T12:15:03;100842.38;;;20.88;31.45
12203;BME280;6164;42.178;24.622;2023-04-28T12:17:32;100842.16;;;20.97;31.61
12203;BME280;6164;42.178;24.622;2023-04-28T12:20:01;100861.75;;;20.84;31.35
12203;BME280;6164;42.178;24.622;2023-04-28T12:22:28;100858.94;;;21.18;30.84
12203;BME280;6164;42.178;24.622;2023-04-28T12:25:04;100852.53;;;21.32;31.43
12203;BME280;6164;42.178;24.622;2023-04-28T12:27:32;100853.31;;;21.72;31.30
12203;BME280;6164;42.178;24.622;2023-04-28T12:29:59;100881.66;;;21.55;30.24
12203;BME280;6164;42.178;24.622;2023-04-28T12:32:39;100897.97;;;21.53;30.70
12203;BME280;6164;42.178;24.622;2023-04-28T12:35:08;100879.16;;;21.73;31.90
12203;BME280;6164;42.178;24.622;2023-04-28T12:37:35;100836.09;;;22.05;32.16
12203;BME280;6164;42.178;24.622;2023-04-28T12:40:05;100862.78;;;22.51;31.19
12203;BME280;6164;42.178;24.622;2023-04-28T12:42:32;100849.63;;;22.74;32.03
12203;BME280;6164;42.178;24.622;2023-04-28T12:44:59;100865.53;;;22.82;31.93
12203;BME280;6164;42.178;24.622;2023-04-28T12:47:25;100871.28;;;22.48;30.88
12203;BME280;6164;42.178;24.622;2023-04-28T12:49:52;100862.16;;;22.49;31.74
12203;BME280;6164;42.178;24.622;2023-04-28T12:52:19;100858.19;;;22.65;31.39
12203;BME280;6164;42.178;24.622;2023-04-28T12:54:46;100861.63;;;22.78;31.64
12203;BME280;6164;42.178;24.622;2023-04-28T12:57:15;100870.16;;;22.69;30.87
12203;BME280;6164;42.178;24.622;2023-04-28T12:59:42;100870.66;;;22.53;31.67
12203;BME280;6164;42.178;24.622;2023-04-28T13:02:09;100880.03;;;22.31;30.95
12203;BME280;6164;42.178;24.622;2023-04-28T13:04:36;100872.25;;;22.09;31.59